sensor_id;sensor_type;location;lat;lon;timestamp;P1;durP1;ratioP1;P2;durP2;ratioP2
41927;SDS011;27616;51.420;6.788;2024-02-26T00:00:31;3.13;;;1.13;;
41927;SDS011;27616;51.420;6.788;2024-02-26T00:02:57;2.37;;;1.07;;
41927;SDS011;27616;51.420;6.788;2024-02-26T00:05:22;2.70;;;0.97;;
41927;SDS011;27616;51.420;6.788;2024-02-26T00:07:48;2.00;;;0.87;;
41927;SDS011;27616;51.420;6.788;2024-02-26T00:10:14;2.87;;;1.13;;
41927;SDS011;27616;51.420;6.788;2024-02-26T00:12:40;1.47;;;0.80;;
41927;SDS011;27616;51.420;6.788;2024-02-26T00:15:06;2.37;;;1.10;;
41927;SDS011;27616;51.420;6.788;2024-02-26T00:17:32;2.27;;;1.03;;
41927;SDS011;27616;51.420;6.788;2024-02-26T00:19:58;3.87;;;1.10;;
41927;SDS011;27616;51.420;6.788;2024-02-26T00:22:25;2.40;;;0.80;;
41927;SDS011;27616;51.420;6.788;2024-02-26T00:24:51;2.07;;;0.90;;
41927;SDS011;27616;51.420;6.788;2024-02-26T00:27:17;1.37;;;0.90;;
41927;SDS011;27616;51.420;6.788;2024-02-26T00:29:42;1.80;;;0.93;;
41927;SDS011;27616;51.420;6.788;2024-02-26T00:32:08;1.87;;;0.93;;
41927;SDS011;27616;51.420;6.788;2024-02-26T00:34:34;2.20;;;1.13;;
41927;SDS011;27616;51.420;6.788;2024-02-26T00:37:01;1.50;;;1.00;;
41927;SDS011;27616;51.420;6.788;2024-02-26T00:39:27;1.70;;;0.90;;
41927;SDS011;27616;51.420;6.788;2024-02-26T00:41:52;1.53;;;0.73;;
41927;SDS011;27616;51.420;6.788;2024-02-26T00:44:18;1.67;;;0.77;;
41927;SDS011;27616;51.420;6.788;2024-02-26T00:46:43;2.83;;;0.97;;
41927;SDS011;27616;51.420;6.788;2024-02-26T00:49:09;2.17;;;1.03;;
41927;SDS011;27616;51.420;6.788;2024-02-26T00:51:35;1.77;;;0.80;;
41927;SDS011;27616;51.420;6.788;2024-02-26T00:54:00;2.47;;;1.10;;
41927;SDS011;27616;51.420;6.788;2024-02-26T00:56:26;2.17;;;0.80;;
41927;SDS011;27616;51.420;6.788;2024-02-26T00:58:52;1.83;;;1.30;;
41927;SDS011;27616;51.420;6.788;2024-02-26T01:01:18;2.77;;;1.10;;
41927;SDS011;27616;51.420;6.788;2024-02-26T01:03:43;2.83;;;1.00;;
41927;SDS011;27616;51.420;6.788;2024-02-26T01:06:09;2.57;;;0.73;;
41927;SDS011;27616;51.420;6.788;2024-02-26T01:08:34;2.07;;;0.73;;
41927;SDS011;27616;51.420;6.788;2024-02-26T01:11:00;2.20;;;0.90;;
41927;SDS011;27616;51.420;6.788;2024-02-26T01:13:26;1.03;;;0.70;;
41927;SDS011;27616;51.420;6.788;2024-02-26T01:15:52;1.10;;;0.73;;
41927;SDS011;27616;51.420;6.788;2024-02-26T01:18:17;1.60;;;0.87;;
41927;SDS011;27616;51.420;6.788;2024-02-26T01:20:43;2.00;;;0.90;;
41927;SDS011;27616;51.420;6.788;2024-02-26T01:23:08;1.80;;;0.90;;
41927;SDS011;27616;51.420;6.788;2024-02-26T01:25:34;3.77;;;0.90;;
41927;SDS011;27616;51.420;6.788;2024-02-26T01:28:00;1.80;;;0.77;;
41927;SDS011;27616;51.420;6.788;2024-02-26T01:30:25;1.50;;;0.80;;
41927;SDS011;27616;51.420;6.788;2024-02-26T01:32:51;2.70;;;0.93;;
41927;SDS011;27616;51.420;6.788;2024-02-26T01:35:16;2.60;;;0.80;;
41927;SDS011;27616;51.420;6.788;2024-02-26T01:37:42;1.47;;;0.83;;
41927;SDS011;27616;51.420;6.788;2024-02-26T01:40:08;1.50;;;0.80;;
41927;SDS011;27616;51.420;6.788;2024-02-26T01:42:34;1.30;;;0.70;;
41927;SDS011;27616;51.420;6.788;2024-02-26T01:45:03;0.83;;;0.47;;
41927;SDS011;27616;51.420;6.788;2024-02-26T01:47:30;1.63;;;0.90;;
41927;SDS011;27616;51.420;6.788;2024-02-26T01:49:56;1.43;;;0.70;;
41927;SDS011;27616;51.420;6.788;2024-02-26T01:52:22;2.97;;;0.80;;
41927;SDS011;27616;51.420;6.788;2024-02-26T01:54:48;2.50;;;1.20;;
41927;SDS011;27616;51.420;6.788;2024-02-26T01:57:15;1.23;;;0.80;;
41927;SDS011;27616;51.420;6.788;2024-02-26T01:59:41;1.47;;;0.80;;
41927;SDS011;27616;51.420;6.788;2024-02-26T02:02:07;1.63;;;0.83;;
41927;SDS011;27616;51.420;6.788;2024-02-26T02:04:36;1.50;;;0.90;;
41927;SDS011;27616;51.420;6.788;2024-02-26T02:07:02;2.40;;;0.87;;
41927;SDS011;27616;51.420;6.788;2024-02-26T02:09:28;1.60;;;0.90;;
41927;SDS011;27616;51.420;6.788;2024-02-26T02:11:54;2.33;;;0.90;;
41927;SDS011;27616;51.420;6.788;2024-02-26T02:14:20;2.93;;;1.00;;
41927;SDS011;27616;51.420;6.788;2024-02-26T02:16:47;1.87;;;0.70;;
41927;SDS011;27616;51.420;6.788;2024-02-26T02:19:13;1.63;;;0.90;;
41927;SDS011;27616;51.420;6.788;2024-02-26T02:21:38;2.07;;;0.83;;
41927;SDS011;27616;51.420;6.788;2024-02-26T02:24:04;1.93;;;0.80;;
41927;SDS011;27616;51.420;6.788;2024-02-26T02:26:30;1.10;;;0.70;;
41927;SDS011;27616;51.420;6.788;2024-02-26T02:28:56;2.70;;;1.40;;
41927;SDS011;27616;51.420;6.788;2024-02-26T02:31:22;4.17;;;0.97;;
41927;SDS011;27616;51.420;6.788;2024-02-26T02:33:48;3.13;;;1.00;;
41927;SDS011;27616;51.420;6.788;2024-02-26T02:36:13;3.00;;;1.03;;
41927;SDS011;27616;51.420;6.788;2024-02-26T02:38:48;2.23;;;0.97;;
41927;SDS011;27616;51.420;6.788;2024-02-26T02:41:17;2.30;;;0.90;;
41927;SDS011;27616;51.420;6.788;2024-02-26T02:43:43;2.53;;;0.93;;
41927;SDS011;27616;51.420;6.788;2024-02-26T02:46:09;2.00;;;0.90;;
41927;SDS011;27616;51.420;6.788;2024-02-26T02:48:36;1.70;;;0.90;;
41927;SDS011;27616;51.420;6.788;2024-02-26T02:51:02;1.93;;;1.00;;
41927;SDS011;27616;51.420;6.788;2024-02-26T02:53:29;1.90;;;0.80;;
41927;SDS011;27616;51.420;6.788;2024-02-26T02:55:55;3.07;;;1.10;;
41927;SDS011;27616;51.420;6.788;2024-02-26T02:58:21;2.20;;;0.90;;
41927;SDS011;27616;51.420;6.788;2024-02-26T03:00:46;1.87;;;0.97;;
41927;SDS011;27616;51.420;6.788;2024-02-26T03:03:12;2.60;;;1.30;;
41927;SDS011;27616;51.420;6.788;2024-02-26T03:05:37;2.13;;;0.90;;
41927;SDS011;27616;51.420;6.788;2024-02-26T03:08:03;1.70;;;0.90;;
41927;SDS011;27616;51.420;6.788;2024-02-26T03:10:29;2.20;;;1.10;;
41927;SDS011;27616;51.420;6.788;2024-02-26T03:12:54;2.33;;;1.03;;
41927;SDS011;27616;51.420;6.788;2024-02-26T03:15:21;2.33;;;1.00;;
41927;SDS011;27616;51.420;6.788;2024-02-26T03:17:47;3.43;;;1.40;;
41927;SDS011;27616;51.420;6.788;2024-02-26T03:20:12;4.43;;;1.30;;
41927;SDS011;27616;51.420;6.788;2024-02-26T03:22:38;2.33;;;1.30;;
41927;SDS011;27616;51.420;6.788;2024-02-26T03:25:05;9.83;;;1.50;;
41927;SDS011;27616;51.420;6.788;2024-02-26T03:27:31;3.87;;;1.10;;
41927;SDS011;27616;51.420;6.788;2024-02-26T03:29:57;3.20;;;1.47;;
41927;SDS011;27616;51.420;6.788;2024-02-26T03:32:23;3.13;;;1.37;;
41927;SDS011;27616;51.420;6.788;2024-02-26T03:34:48;3.57;;;1.40;;
41927;SDS011;27616;51.420;6.788;2024-02-26T03:37:14;2.50;;;1.40;;
41927;SDS011;27616;51.420;6.788;2024-02-26T03:39:40;5.10;;;1.50;;
41927;SDS011;27616;51.420;6.788;2024-02-26T03:42:06;9.37;;;2.00;;
41927;SDS011;27616;51.420;6.788;2024-02-26T03:44:31;3.23;;;1.37;;
41927;SDS011;27616;51.420;6.788;2024-02-26T03:46:57;2.87;;;1.20;;
41927;SDS011;27616;51.420;6.788;2024-02-26T03:49:22;2.20;;;1.20;;
41927;SDS011;27616;51.420;6.788;2024-02-26T03:51:48;2.30;;;1.40;;
41927;SDS011;27616;51.420;6.788;2024-02-26T03:54:14;4.53;;;1.40;;
41927;SDS011;27616;51.420;6.788;2024-02-26T03:56:40;5.13;;;1.40;;
41927;SDS011;27616;51.420;6.788;2024-02-26T03:59:05;3.73;;;1.33;;
41927;SDS011;27616;51.420;6.788;2024-02-26T04:01:31;2.87;;;1.40;;
41927;SDS011;27616;51.420;6.788;2024-02-26T04:03:56;2.57;;;1.50;;
41927;SDS011;27616;51.420;6.788;2024-02-26T04:06:22;3.87;;;1.57;;
41927;SDS011;27616;51.420;6.788;2024-02-26T04:08:48;4.50;;;1.77;;
41927;SDS011;27616;51.420;6.788;2024-02-26T04:11:14;3.57;;;1.70;;
41927;SDS011;27616;51.420;6.788;2024-02-26T04:13:43;6.18;;;1.50;;
41927;SDS011;27616;51.420;6.788;2024-02-26T04:16:11;3.40;;;1.70;;
41927;SDS011;27616;51.420;6.788;2024-02-26T04:18:36;4.03;;;1.80;;
41927;SDS011;27616;51.420;6.788;2024-02-26T04:21:03;3.97;;;1.93;;
41927;SDS011;27616;51.420;6.788;2024-02-26T04:23:30;5.43;;;1.70;;
41927;SDS011;27616;51.420;6.788;2024-02-26T04:25:56;4.33;;;1.50;;
41927;SDS011;27616;51.420;6.788;2024-02-26T04:28:21;3.03;;;1.57;;
41927;SDS011;27616;51.420;6.788;2024-02-26T04:30:47;2.57;;;1.47;;
41927;SDS011;27616;51.420;6.788;2024-02-26T04:33:13;3.03;;;1.60;;
41927;SDS011;27616;51.420;6.788;2024-02-26T04:35:39;3.70;;;1.77;;
41927;SDS011;27616;51.420;6.788;2024-02-26T04:38:05;3.40;;;1.43;;
41927;SDS011;27616;51.420;6.788;2024-02-26T04:40:30;3.90;;;1.33;;
41927;SDS011;27616;51.420;6.788;2024-02-26T04:42:56;4.13;;;2.07;;
41927;SDS011;27616;51.420;6.788;2024-02-26T04:45:22;3.67;;;2.10;;
41927;SDS011;27616;51.420;6.788;2024-02-26T04:47:48;3.07;;;1.47;;
41927;SDS011;27616;51.420;6.788;2024-02-26T04:50:13;3.40;;;1.83;;
41927;SDS011;27616;51.420;6.788;2024-02-26T04:52:39;6.03;;;1.93;;
41927;SDS011;27616;51.420;6.788;2024-02-26T04:55:04;6.37;;;1.73;;
41927;SDS011;27616;51.420;6.788;2024-02-26T04:57:30;2.73;;;1.70;;
41927;SDS011;27616;51.420;6.788;2024-02-26T04:59:56;4.33;;;2.00;;
41927;SDS011;27616;51.420;6.788;2024-02-26T05:02:21;4.73;;;1.80;;
41927;SDS011;27616;51.420;6.788;2024-02-26T05:04:47;5.37;;;2.00;;
41927;SDS011;27616;51.420;6.788;2024-02-26T05:07:13;3.83;;;2.03;;
41927;SDS011;27616;51.420;6.788;2024-02-26T05:09:38;4.77;;;1.90;;
41927;SDS011;27616;51.420;6.788;2024-02-26T05:12:05;3.97;;;1.90;;
41927;SDS011;27616;51.420;6.788;2024-02-26T05:14:31;5.17;;;2.40;;
41927;SDS011;27616;51.420;6.788;2024-02-26T05:16:56;6.87;;;2.30;;
41927;SDS011;27616;51.420;6.788;2024-02-26T05:19:22;4.00;;;2.03;;
41927;SDS011;27616;51.420;6.788;2024-02-26T05:21:48;3.17;;;1.80;;
41927;SDS011;27616;51.420;6.788;2024-02-26T05:24:15;4.97;;;2.10;;
41927;SDS011;27616;51.420;6.788;2024-02-26T05:26:42;5.10;;;2.13;;
41927;SDS011;27616;51.420;6.788;2024-02-26T05:29:08;4.03;;;1.97;;
41927;SDS011;27616;51.420;6.788;2024-02-26T05:31:34;4.03;;;1.83;;
41927;SDS011;27616;51.420;6.788;2024-02-26T05:34:00;4.73;;;2.10;;
41927;SDS011;27616;51.420;6.788;2024-02-26T05:36:26;4.80;;;2.10;;
41927;SDS011;27616;51.420;6.788;2024-02-26T05:38:53;4.30;;;1.93;;
41927;SDS011;27616;51.420;6.788;2024-02-26T05:41:19;9.03;;;2.60;;
41927;SDS011;27616;51.420;6.788;2024-02-26T05:43:51;3.83;;;2.03;;
41927;SDS011;27616;51.420;6.788;2024-02-26T05:46:20;4.83;;;2.50;;
41927;SDS011;27616;51.420;6.788;2024-02-26T05:48:47;6.50;;;2.47;;
41927;SDS011;27616;51.420;6.788;2024-02-26T05:51:14;4.53;;;2.50;;
41927;SDS011;27616;51.420;6.788;2024-02-26T05:53:40;3.97;;;1.80;;
41927;SDS011;27616;51.420;6.788;2024-02-26T05:56:06;4.63;;;2.43;;
41927;SDS011;27616;51.420;6.788;2024-02-26T05:58:32;3.60;;;2.20;;
41927;SDS011;27616;51.420;6.788;2024-02-26T06:00:57;6.53;;;2.20;;
41927;SDS011;27616;51.420;6.788;2024-02-26T06:03:23;6.23;;;2.47;;
41927;SDS011;27616;51.420;6.788;2024-02-26T06:05:49;3.47;;;2.23;;
41927;SDS011;27616;51.420;6.788;2024-02-26T06:08:14;4.20;;;2.10;;
41927;SDS011;27616;51.420;6.788;2024-02-26T06:10:40;5.17;;;2.47;;
41927;SDS011;27616;51.420;6.788;2024-02-26T06:13:06;4.23;;;2.23;;
41927;SDS011;27616;51.420;6.788;2024-02-26T06:15:31;7.00;;;2.17;;
41927;SDS011;27616;51.420;6.788;2024-02-26T06:17:57;6.13;;;2.33;;
41927;SDS011;27616;51.420;6.788;2024-02-26T06:20:22;3.67;;;2.10;;
41927;SDS011;27616;51.420;6.788;2024-02-26T06:22:48;4.93;;;2.70;;
41927;SDS011;27616;51.420;6.788;2024-02-26T06:25:14;6.00;;;2.20;;
41927;SDS011;27616;51.420;6.788;2024-02-26T06:27:39;5.13;;;2.10;;
41927;SDS011;27616;51.420;6.788;2024-02-26T06:30:05;5.17;;;2.10;;
41927;SDS011;27616;51.420;6.788;2024-02-26T06:32:31;3.13;;;1.90;;
41927;SDS011;27616;51.420;6.788;2024-02-26T06:34:57;3.83;;;2.00;;
41927;SDS011;27616;51.420;6.788;2024-02-26T06:37:22;5.53;;;2.47;;
41927;SDS011;27616;51.420;6.788;2024-02-26T06:39:48;3.30;;;2.20;;
41927;SDS011;27616;51.420;6.788;2024-02-26T06:42:14;3.80;;;2.17;;
41927;SDS011;27616;51.420;6.788;2024-02-26T06:44:39;4.80;;;1.83;;
41927;SDS011;27616;51.420;6.788;2024-02-26T06:47:05;5.23;;;2.33;;
41927;SDS011;27616;51.420;6.788;2024-02-26T06:49:31;4.20;;;2.10;;
41927;SDS011;27616;51.420;6.788;2024-02-26T06:51:56;4.07;;;2.20;;
41927;SDS011;27616;51.420;6.788;2024-02-26T06:54:22;5.57;;;2.50;;
41927;SDS011;27616;51.420;6.788;2024-02-26T06:56:47;6.33;;;2.67;;
41927;SDS011;27616;51.420;6.788;2024-02-26T06:59:13;4.63;;;2.40;;
41927;SDS011;27616;51.420;6.788;2024-02-26T07:01:42;4.27;;;2.07;;
41927;SDS011;27616;51.420;6.788;2024-02-26T07:04:08;4.30;;;2.30;;
41927;SDS011;27616;51.420;6.788;2024-02-26T07:06:34;3.83;;;2.20;;
41927;SDS011;27616;51.420;6.788;2024-02-26T07:08:59;7.60;;;2.13;;
41927;SDS011;27616;51.420;6.788;2024-02-26T07:11:25;5.20;;;2.20;;
41927;SDS011;27616;51.420;6.788;2024-02-26T07:13:50;5.53;;;2.60;;
41927;SDS011;27616;51.420;6.788;2024-02-26T07:16:16;5.50;;;2.30;;
41927;SDS011;27616;51.420;6.788;2024-02-26T07:18:41;4.50;;;2.43;;
41927;SDS011;27616;51.420;6.788;2024-02-26T07:21:11;3.70;;;2.10;;
41927;SDS011;27616;51.420;6.788;2024-02-26T07:23:37;4.87;;;2.17;;
41927;SDS011;27616;51.420;6.788;2024-02-26T07:26:03;4.13;;;2.20;;
41927;SDS011;27616;51.420;6.788;2024-02-26T07:28:28;6.13;;;2.23;;
41927;SDS011;27616;51.420;6.788;2024-02-26T07:30:54;3.53;;;1.90;;
41927;SDS011;27616;51.420;6.788;2024-02-26T07:33:20;6.30;;;2.23;;
41927;SDS011;27616;51.420;6.788;2024-02-26T07:35:45;5.80;;;2.13;;
41927;SDS011;27616;51.420;6.788;2024-02-26T07:38:11;3.90;;;2.10;;
41927;SDS011;27616;51.420;6.788;2024-02-26T07:40:38;5.70;;;2.20;;
41927;SDS011;27616;51.420;6.788;2024-02-26T07:43:04;4.80;;;1.87;;
41927;SDS011;27616;51.420;6.788;2024-02-26T07:45:29;4.67;;;2.30;;
41927;SDS011;27616;51.420;6.788;2024-02-26T07:47:55;3.40;;;2.13;;
41927;SDS011;27616;51.420;6.788;2024-02-26T07:50:20;5.07;;;2.20;;
41927;SDS011;27616;51.420;6.788;2024-02-26T07:52:46;4.63;;;2.17;;
41927;SDS011;27616;51.420;6.788;2024-02-26T07:55:12;5.30;;;2.00;;
41927;SDS011;27616;51.420;6.788;2024-02-26T07:57:41;2.73;;;1.70;;
41927;SDS011;27616;51.420;6.788;2024-02-26T08:00:08;3.70;;;1.80;;
41927;SDS011;27616;51.420;6.788;2024-02-26T08:02:34;5.33;;;2.00;;
41927;SDS011;27616;51.420;6.788;2024-02-26T08:05:00;3.40;;;2.00;;
41927;SDS011;27616;51.420;6.788;2024-02-26T08:07:26;5.00;;;2.23;;
41927;SDS011;27616;51.420;6.788;2024-02-26T08:09:51;4.53;;;2.00;;
41927;SDS011;27616;51.420;6.788;2024-02-26T08:12:17;4.80;;;1.90;;
41927;SDS011;27616;51.420;6.788;2024-02-26T08:14:43;5.10;;;2.23;;
41927;SDS011;27616;51.420;6.788;2024-02-26T08:17:09;4.23;;;2.17;;
41927;SDS011;27616;51.420;6.788;2024-02-26T08:19:34;3.77;;;2.10;;
41927;SDS011;27616;51.420;6.788;2024-02-26T08:22:01;4.57;;;1.90;;
41927;SDS011;27616;51.420;6.788;2024-02-26T08:24:27;5.77;;;2.20;;
41927;SDS011;27616;51.420;6.788;2024-02-26T08:26:53;4.03;;;1.90;;
41927;SDS011;27616;51.420;6.788;2024-02-26T08:29:18;4.53;;;2.00;;
41927;SDS011;27616;51.420;6.788;2024-02-26T08:31:44;4.43;;;2.00;;
41927;SDS011;27616;51.420;6.788;2024-02-26T08:34:10;4.83;;;2.20;;
41927;SDS011;27616;51.420;6.788;2024-02-26T08:36:35;4.97;;;2.20;;
41927;SDS011;27616;51.420;6.788;2024-02-26T08:39:01;6.33;;;2.50;;
41927;SDS011;27616;51.420;6.788;2024-02-26T08:41:27;7.33;;;2.23;;
41927;SDS011;27616;51.420;6.788;2024-02-26T08:43:53;5.47;;;2.57;;
41927;SDS011;27616;51.420;6.788;2024-02-26T08:46:19;5.67;;;2.20;;
41927;SDS011;27616;51.420;6.788;2024-02-26T08:48:45;7.70;;;2.90;;
41927;SDS011;27616;51.420;6.788;2024-02-26T08:51:11;5.17;;;2.47;;
41927;SDS011;27616;51.420;6.788;2024-02-26T08:53:36;5.97;;;3.10;;
41927;SDS011;27616;51.420;6.788;2024-02-26T08:56:02;5.10;;;2.40;;
41927;SDS011;27616;51.420;6.788;2024-02-26T08:58:28;4.47;;;2.63;;
41927;SDS011;27616;51.420;6.788;2024-02-26T09:00:54;6.00;;;2.80;;
41927;SDS011;27616;51.420;6.788;2024-02-26T09:03:20;4.80;;;2.37;;
41927;SDS011;27616;51.420;6.788;2024-02-26T09:05:46;3.67;;;2.23;;
41927;SDS011;27616;51.420;6.788;2024-02-26T09:08:11;4.40;;;2.40;;
41927;SDS011;27616;51.420;6.788;2024-02-26T09:10:38;5.23;;;2.60;;
41927;SDS011;27616;51.420;6.788;2024-02-26T09:13:03;6.33;;;2.93;;
41927;SDS011;27616;51.420;6.788;2024-02-26T09:15:29;8.40;;;2.87;;
41927;SDS011;27616;51.420;6.788;2024-02-26T09:17:55;7.50;;;3.20;;
41927;SDS011;27616;51.420;6.788;2024-02-26T09:20:20;6.13;;;2.73;;
41927;SDS011;27616;51.420;6.788;2024-02-26T09:22:48;7.10;;;2.93;;
41927;SDS011;27616;51.420;6.788;2024-02-26T09:25:14;4.00;;;2.37;;
41927;SDS011;27616;51.420;6.788;2024-02-26T09:27:43;5.83;;;2.80;;
41927;SDS011;27616;51.420;6.788;2024-02-26T09:30:10;10.17;;;2.83;;
41927;SDS011;27616;51.420;6.788;2024-02-26T09:32:37;5.87;;;2.83;;
41927;SDS011;27616;51.420;6.788;2024-02-26T09:35:03;5.57;;;2.47;;
41927;SDS011;27616;51.420;6.788;2024-02-26T09:37:28;5.53;;;2.83;;
41927;SDS011;27616;51.420;6.788;2024-02-26T09:39:54;6.17;;;2.73;;
41927;SDS011;27616;51.420;6.788;2024-02-26T09:42:20;5.10;;;2.53;;
41927;SDS011;27616;51.420;6.788;2024-02-26T09:44:46;6.87;;;2.83;;
41927;SDS011;27616;51.420;6.788;2024-02-26T09:47:16;6.17;;;2.90;;
41927;SDS011;27616;51.420;6.788;2024-02-26T09:49:42;5.00;;;2.80;;
41927;SDS011;27616;51.420;6.788;2024-02-26T09:52:08;4.23;;;2.57;;
41927;SDS011;27616;51.420;6.788;2024-02-26T09:54:35;7.63;;;3.17;;
41927;SDS011;27616;51.420;6.788;2024-02-26T09:57:02;5.93;;;2.63;;
41927;SDS011;27616;51.420;6.788;2024-02-26T09:59:29;8.37;;;3.40;;
41927;SDS011;27616;51.420;6.788;2024-02-26T10:02:00;7.67;;;3.33;;
41927;SDS011;27616;51.420;6.788;2024-02-26T10:04:28;6.30;;;2.87;;
41927;SDS011;27616;51.420;6.788;2024-02-26T10:06:54;6.70;;;3.13;;
41927;SDS011;27616;51.420;6.788;2024-02-26T10:09:20;6.40;;;3.30;;
41927;SDS011;27616;51.420;6.788;2024-02-26T10:11:46;7.20;;;2.83;;
41927;SDS011;27616;51.420;6.788;2024-02-26T10:14:14;8.40;;;3.53;;
41927;SDS011;27616;51.420;6.788;2024-02-26T10:16:40;8.70;;;3.67;;
41927;SDS011;27616;51.420;6.788;2024-02-26T10:19:06;6.87;;;3.43;;
41927;SDS011;27616;51.420;6.788;2024-02-26T10:21:32;6.03;;;3.40;;
41927;SDS011;27616;51.420;6.788;2024-02-26T10:23:57;4.80;;;2.93;;
41927;SDS011;27616;51.420;6.788;2024-02-26T10:26:23;6.13;;;2.93;;
41927;SDS011;27616;51.420;6.788;2024-02-26T10:28:49;6.87;;;3.20;;
41927;SDS011;27616;51.420;6.788;2024-02-26T10:31:14;5.43;;;3.20;;
41927;SDS011;27616;51.420;6.788;2024-02-26T10:33:40;5.87;;;3.17;;
41927;SDS011;27616;51.420;6.788;2024-02-26T10:36:08;8.83;;;3.47;;
41927;SDS011;27616;51.420;6.788;2024-02-26T10:38:34;8.00;;;3.60;;
41927;SDS011;27616;51.420;6.788;2024-02-26T10:41:01;6.53;;;3.43;;
41927;SDS011;27616;51.420;6.788;2024-02-26T10:43:28;5.10;;;2.70;;
41927;SDS011;27616;51.420;6.788;2024-02-26T10:45:57;11.23;;;3.30;;
41927;SDS011;27616;51.420;6.788;2024-02-26T10:48:22;8.30;;;3.65;;
41927;SDS011;27616;51.420;6.788;2024-02-26T10:50:49;7.43;;;3.00;;
41927;SDS011;27616;51.420;6.788;2024-02-26T10:53:21;7.03;;;3.40;;
41927;SDS011;27616;51.420;6.788;2024-02-26T10:55:57;4.80;;;2.97;;
41927;SDS011;27616;51.420;6.788;2024-02-26T10:58:26;6.78;;;3.40;;
41927;SDS011;27616;51.420;6.788;2024-02-26T11:00:53;6.80;;;3.13;;
41927;SDS011;27616;51.420;6.788;2024-02-26T11:03:21;7.53;;;3.63;;
41927;SDS011;27616;51.420;6.788;2024-02-26T11:05:48;9.00;;;3.23;;
41927;SDS011;27616;51.420;6.788;2024-02-26T11:08:15;8.83;;;3.40;;
41927;SDS011;27616;51.420;6.788;2024-02-26T11:10:43;5.43;;;3.10;;
41927;SDS011;27616;51.420;6.788;2024-02-26T11:13:12;7.38;;;3.58;;
41927;SDS011;27616;51.420;6.788;2024-02-26T11:15:39;8.33;;;3.50;;
41927;SDS011;27616;51.420;6.788;2024-02-26T11:18:05;6.10;;;3.47;;
41927;SDS011;27616;51.420;6.788;2024-02-26T11:20:33;6.00;;;3.20;;
41927;SDS011;27616;51.420;6.788;2024-02-26T11:23:08;5.80;;;3.30;;
41927;SDS011;27616;51.420;6.788;2024-02-26T11:25:37;8.20;;;3.53;;
41927;SDS011;27616;51.420;6.788;2024-02-26T11:28:09;10.32;;;3.80;;
41927;SDS011;27616;51.420;6.788;2024-02-26T11:30:38;7.77;;;3.30;;
41927;SDS011;27616;51.420;6.788;2024-02-26T11:33:16;7.50;;;3.90;;
41927;SDS011;27616;51.420;6.788;2024-02-26T11:35:51;6.73;;;3.63;;
41927;SDS011;27616;51.420;6.788;2024-02-26T11:38:26;7.00;;;3.60;;
41927;SDS011;27616;51.420;6.788;2024-02-26T11:40:55;6.80;;;3.25;;
41927;SDS011;27616;51.420;6.788;2024-02-26T11:46:30;5.33;;;2.87;;
41927;SDS011;27616;51.420;6.788;2024-02-26T11:51:59;6.43;;;3.30;;
41927;SDS011;27616;51.420;6.788;2024-02-26T11:57:24;12.80;;;4.17;;
41927;SDS011;27616;51.420;6.788;2024-02-26T12:02:47;12.95;;;4.43;;
41927;SDS011;27616;51.420;6.788;2024-02-26T12:05:30;7.63;;;3.13;;
41927;SDS011;27616;51.420;6.788;2024-02-26T12:08:01;8.37;;;3.77;;
41927;SDS011;27616;51.420;6.788;2024-02-26T12:10:46;7.47;;;3.97;;
41927;SDS011;27616;51.420;6.788;2024-02-26T12:13:14;7.97;;;4.10;;
41927;SDS011;27616;51.420;6.788;2024-02-26T12:18:23;7.60;;;4.10;;
41927;SDS011;27616;51.420;6.788;2024-02-26T12:20:58;8.00;;;3.80;;
41927;SDS011;27616;51.420;6.788;2024-02-26T12:23:28;7.43;;;3.90;;
41927;SDS011;27616;51.420;6.788;2024-02-26T12:25:54;11.53;;;4.50;;
41927;SDS011;27616;51.420;6.788;2024-02-26T12:28:30;10.17;;;4.17;;
41927;SDS011;27616;51.420;6.788;2024-02-26T12:31:07;7.93;;;3.70;;
41927;SDS011;27616;51.420;6.788;2024-02-26T12:33:33;8.03;;;3.60;;
41927;SDS011;27616;51.420;6.788;2024-02-26T12:36:02;6.83;;;3.90;;
41927;SDS011;27616;51.420;6.788;2024-02-26T12:38:29;8.05;;;3.90;;
41927;SDS011;27616;51.420;6.788;2024-02-26T12:40:58;9.37;;;3.97;;
41927;SDS011;27616;51.420;6.788;2024-02-26T12:43:24;8.13;;;3.75;;
41927;SDS011;27616;51.420;6.788;2024-02-26T12:45:55;8.52;;;3.75;;
41927;SDS011;27616;51.420;6.788;2024-02-26T12:48:21;8.88;;;4.55;;
41927;SDS011;27616;51.420;6.788;2024-02-26T12:50:50;6.80;;;3.73;;
41927;SDS011;27616;51.420;6.788;2024-02-26T12:53:21;8.33;;;4.13;;
41927;SDS011;27616;51.420;6.788;2024-02-26T12:55:48;8.70;;;3.87;;
41927;SDS011;27616;51.420;6.788;2024-02-26T12:58:21;11.30;;;3.87;;
41927;SDS011;27616;51.420;6.788;2024-02-26T13:00:54;6.83;;;3.53;;
41927;SDS011;27616;51.420;6.788;2024-02-26T13:03:22;8.25;;;3.78;;
41927;SDS011;27616;51.420;6.788;2024-02-26T13:05:49;8.33;;;4.20;;
41927;SDS011;27616;51.420;6.788;2024-02-26T13:08:21;10.13;;;3.53;;
41927;SDS011;27616;51.420;6.788;2024-02-26T13:10:56;7.13;;;3.80;;
41927;SDS011;27616;51.420;6.788;2024-02-26T13:13:24;9.03;;;3.93;;
41927;SDS011;27616;51.420;6.788;2024-02-26T13:15:50;8.33;;;3.47;;
41927;SDS011;27616;51.420;6.788;2024-02-26T13:18:41;6.40;;;3.30;;
41927;SDS011;27616;51.420;6.788;2024-02-26T13:21:14;6.93;;;3.60;;
41927;SDS011;27616;51.420;6.788;2024-02-26T13:23:47;10.43;;;5.00;;
41927;SDS011;27616;51.420;6.788;2024-02-26T13:26:17;7.53;;;3.77;;
41927;SDS011;27616;51.420;6.788;2024-02-26T13:28:47;8.17;;;3.37;;
41927;SDS011;27616;51.420;6.788;2024-02-26T13:31:15;7.95;;;3.35;;
41927;SDS011;27616;51.420;6.788;2024-02-26T13:33:47;5.10;;;2.90;;
41927;SDS011;27616;51.420;6.788;2024-02-26T13:36:17;5.53;;;2.80;;
41927;SDS011;27616;51.420;6.788;2024-02-26T13:38:50;5.27;;;2.30;;
41927;SDS011;27616;51.420;6.788;2024-02-26T13:41:20;6.63;;;3.03;;
41927;SDS011;27616;51.420;6.788;2024-02-26T13:43:47;4.97;;;2.73;;
41927;SDS011;27616;51.420;6.788;2024-02-26T13:46:15;4.67;;;2.80;;
41927;SDS011;27616;51.420;6.788;2024-02-26T13:48:41;7.13;;;2.80;;
41927;SDS011;27616;51.420;6.788;2024-02-26T13:51:15;5.10;;;2.10;;
41927;SDS011;27616;51.420;6.788;2024-02-26T13:53:43;6.32;;;3.00;;
41927;SDS011;27616;51.420;6.788;2024-02-26T13:56:12;4.93;;;2.20;;
41927;SDS011;27616;51.420;6.788;2024-02-26T13:58:47;6.53;;;2.60;;
41927;SDS011;27616;51.420;6.788;2024-02-26T14:01:15;4.57;;;2.25;;
41927;SDS011;27616;51.420;6.788;2024-02-26T14:03:44;4.67;;;2.73;;
41927;SDS011;27616;51.420;6.788;2024-02-26T14:06:13;4.27;;;2.23;;
41927;SDS011;27616;51.420;6.788;2024-02-26T14:08:39;5.20;;;2.37;;
41927;SDS011;27616;51.420;6.788;2024-02-26T14:11:08;5.60;;;2.33;;
41927;SDS011;27616;51.420;6.788;2024-02-26T14:13:36;4.30;;;2.10;;
41927;SDS011;27616;51.420;6.788;2024-02-26T14:16:02;4.10;;;2.07;;
41927;SDS011;27616;51.420;6.788;2024-02-26T14:18:31;4.57;;;2.20;;
41927;SDS011;27616;51.420;6.788;2024-02-26T14:20:57;4.28;;;2.13;;
41927;SDS011;27616;51.420;6.788;2024-02-26T14:23:23;3.73;;;2.13;;
41927;SDS011;27616;51.420;6.788;2024-02-26T14:26:06;4.23;;;2.43;;
41927;SDS011;27616;51.420;6.788;2024-02-26T14:28:35;4.60;;;2.50;;
41927;SDS011;27616;51.420;6.788;2024-02-26T14:31:19;4.63;;;2.37;;
41927;SDS011;27616;51.420;6.788;2024-02-26T14:33:45;4.57;;;2.27;;
41927;SDS011;27616;51.420;6.788;2024-02-26T14:36:12;3.87;;;2.23;;
41927;SDS011;27616;51.420;6.788;2024-02-26T14:38:37;4.00;;;2.50;;
41927;SDS011;27616;51.420;6.788;2024-02-26T14:41:05;5.83;;;2.80;;
41927;SDS011;27616;51.420;6.788;2024-02-26T14:43:31;5.80;;;2.30;;
41927;SDS011;27616;51.420;6.788;2024-02-26T14:46:00;4.85;;;2.28;;
41927;SDS011;27616;51.420;6.788;2024-02-26T14:48:25;6.50;;;2.83;;
41927;SDS011;27616;51.420;6.788;2024-02-26T14:50:51;4.90;;;2.20;;
41927;SDS011;27616;51.420;6.788;2024-02-26T14:53:17;6.10;;;2.73;;
41927;SDS011;27616;51.420;6.788;2024-02-26T14:55:43;4.33;;;2.20;;
41927;SDS011;27616;51.420;6.788;2024-02-26T14:58:08;3.77;;;2.40;;
41927;SDS011;27616;51.420;6.788;2024-02-26T15:00:40;4.40;;;2.30;;